sensor_id;sensor_type;location;lat;lon;timestamp;pressure;altitude;pressure_sealevel;temperature;humidity
59110;BME280;44895;47.438;18.978;2023-04-06T00:00:02;100290.19;;;0.46;88.94
59110;BME280;44895;47.438;18.978;2023-04-06T00:03:12;100285.56;;;0.53;87.55
59110;BME280;44895;47.438;18.978;2023-04-06T00:06:15;100289.28;;;0.34;91.56
59110;BME280;44895;47.438;18.978;2023-04-06T00:09:19;100281.63;;;0.37;92.67
59110;BME280;44895;47.438;18.978;2023-04-06T00:12:23;100290.63;;;-0.01;90.27
59110;BME280;44895;47.438;18.978;2023-04-06T00:15:26;100283.19;;;0.45;86.41
59110;BME280;44895;47.438;18.978;2023-04-06T00:18:30;100282.59;;;0.24;88.35
59110;BME280;44895;47.438;18.978;2023-04-06T00:21:34;100271.41;;;0.09;91.58
59110;BME280;44895;47.438;18.978;2023-04-06T00:24:37;100278.97;;;0.37;92.29
59110;BME280;44895;47.438;18.978;2023-04-06T00:27:41;100274.03;;;0.34;87.23
59110;BME280;44895;47.438;18.978;2023-04-06T00:30:44;100273.97;;;0.22;85.69
59110;BME280;44895;47.438;18.978;2023-04-06T00:33:48;100271.03;;;0.30;88.08
59110;BME280;44895;47.438;18.978;2023-04-06T00:36:52;100263.03;;;0.24;85.43
59110;BME280;44895;47.438;18.978;2023-04-06T00:39:56;100267.38;;;-0.01;88.09
59110;BME280;44895;47.438;18.978;2023-04-06T00:42:59;100261.56;;;0.09;91.47
59110;BME280;44895;47.438;18.978;2023-04-06T00:46:03;100255.44;;;0.02;88.74
59110;BME280;44895;47.438;18.978;2023-04-06T00:49:06;100257.53;;;0.00;91.80
59110;BME280;44895;47.438;18.978;2023-04-06T00:52:10;100250.44;;;-0.13;94.15
59110;BME280;44895;47.438;18.978;2023-04-06T00:55:14;100255.34;;;-0.10;94.40
59110;BME280;44895;47.438;18.978;2023-04-06T00:58:19;100253.06;;;-0.06;96.57
59110;BME280;44895;47.438;18.978;2023-04-06T01:01:28;100259.69;;;0.10;95.49
59110;BME280;44895;47.438;18.978;2023-04-06T01:04:36;100259.28;;;-0.12;94.63
59110;BME280;44895;47.438;18.978;2023-04-06T01:07:42;100267.94;;;-0.17;93.35
59110;BME280;44895;47.438;18.978;2023-04-06T01:10:49;100259.91;;;0.08;91.25
59110;BME280;44895;47.438;18.978;2023-04-06T01:14:01;100266.44;;;-0.38;92.74
59110;BME280;44895;47.438;18.978;2023-04-06T01:17:25;100264.22;;;-0.41;98.84
59110;BME280;44895;47.438;18.978;2023-04-06T01:20:29;100266.44;;;-0.38;97.93
59110;BME280;44895;47.438;18.978;2023-04-06T01:23:35;100264.22;;;-0.16;95.64
59110;BME280;44895;47.438;18.978;2023-04-06T01:26:40;100257.06;;;-0.47;97.88
59110;BME280;44895;47.438;18.978;2023-04-06T01:29:46;100254.59;;;-0.17;93.93
59110;BME280;44895;47.438;18.978;2023-04-06T01:32:55;100263.94;;;-0.33;95.56
59110;BME280;44895;47.438;18.978;2023-04-06T01:36:13;100260.31;;;-0.13;92.14
59110;BME280;44895;47.438;18.978;2023-04-06T01:39:17;100262.75;;;-0.12;90.44
59110;BME280;44895;47.438;18.978;2023-04-06T01:42:21;100254.34;;;0.10;87.63
59110;BME280;44895;47.438;18.978;2023-04-06T01:45:25;100260.69;;;0.15;87.18
59110;BME280;44895;47.438;18.978;2023-04-06T01:48:33;100248.22;;;0.46;85.10
59110;BME280;44895;47.438;18.978;2023-04-06T01:51:40;100243.03;;;0.33;84.46
59110;BME280;44895;47.438;18.978;2023-04-06T01:54:47;100249.19;;;0.71;82.04
59110;BME280;44895;47.438;18.978;2023-04-06T01:57:54;100250.59;;;0.73;80.56
59110;BME280;44895;47.438;18.978;2023-04-06T02:01:08;100242.19;;;0.70;81.51
59110;BME280;44895;47.438;18.978;2023-04-06T02:04:25;100234.69;;;0.78;81.42
59110;BME280;44895;47.438;18.978;2023-04-06T02:07:36;100236.31;;;0.79;80.71
59110;BME280;44895;47.438;18.978;2023-04-06T02:10:40;100234.03;;;0.83;80.09
59110;BME280;44895;47.438;18.978;2023-04-06T02:13:52;100232.44;;;0.94;80.31
59110;BME280;44895;47.438;18.978;2023-04-06T02:16:56;100235.00;;;0.89;78.68
59110;BME280;44895;47.438;18.978;2023-04-06T02:20:00;100230.31;;;0.84;79.47
59110;BME280;44895;47.438;18.978;2023-04-06T02:23:03;100224.06;;;0.72;80.22
59110;BME280;44895;47.438;18.978;2023-04-06T02:26:07;100221.13;;;0.61;81.39
59110;BME280;44895;47.438;18.978;2023-04-06T02:29:11;100223.00;;;0.61;82.09
59110;BME280;44895;47.438;18.978;2023-04-06T02:32:15;100218.59;;;0.48;82.76
59110;BME280;44895;47.438;18.978;2023-04-06T02:35:18;100217.19;;;0.27;83.36
59110;BME280;44895;47.438;18.978;2023-04-06T02:38:25;100218.53;;;0.36;84.35
59110;BME280;44895;47.438;18.978;2023-04-06T02:41:29;100213.78;;;0.20;85.25
59110;BME280;44895;47.438;18.978;2023-04-06T02:44:34;100210.72;;;0.16;87.05
59110;BME280;44895;47.438;18.978;2023-04-06T02:47:39;100216.47;;;0.38;84.85
59110;BME280;44895;47.438;18.978;2023-04-06T02:50:43;100213.25;;;0.48;84.72
59110;BME280;44895;47.438;18.978;2023-04-06T02:53:47;100206.88;;;0.30;85.54
59110;BME280;44895;47.438;18.978;2023-04-06T02:56:51;100211.31;;;0.37;85.14
59110;BME280;44895;47.438;18.978;2023-04-06T02:59:55;100210.41;;;0.06;86.27
59110;BME280;44895;47.438;18.978;2023-04-06T03:03:09;100207.09;;;0.10;87.02
59110;BME280;44895;47.438;18.978;2023-04-06T03:06:13;100205.84;;;0.13;89.43
59110;BME280;44895;47.438;18.978;2023-04-06T03:09:17;100203.63;;;-0.15;88.84
59110;BME280;44895;47.438;18.978;2023-04-06T03:12:22;100206.25;;;0.10;88.54
59110;BME280;44895;47.438;18.978;2023-04-06T03:15:51;100205.22;;;0.11;87.61
59110;BME280;44895;47.438;18.978;2023-04-06T03:18:57;100202.56;;;0.11;87.84
59110;BME280;44895;47.438;18.978;2023-04-06T03:22:01;100202.19;;;0.26;85.24
59110;BME280;44895;47.438;18.978;2023-04-06T03:25:05;100197.91;;;0.43;85.77
59110;BME280;44895;47.438;18.978;2023-04-06T03:28:10;100206.38;;;0.22;84.37
59110;BME280;44895;47.438;18.978;2023-04-06T03:31:21;100207.97;;;0.23;85.61
59110;BME280;44895;47.438;18.978;2023-04-06T03:34:45;100207.09;;;0.10;86.88
59110;BME280;44895;47.438;18.978;2023-04-06T03:37:49;100216.66;;;0.37;85.78
59110;BME280;44895;47.438;18.978;2023-04-06T03:40:53;100214.31;;;0.47;83.27
59110;BME280;44895;47.438;18.978;2023-04-06T03:44:00;100211.03;;;0.45;82.63
59110;BME280;44895;47.438;18.978;2023-04-06T03:47:04;100205.59;;;0.52;81.70
59110;BME280;44895;47.438;18.978;2023-04-06T03:50:08;100211.03;;;0.63;80.29
59110;BME280;44895;47.438;18.978;2023-04-06T03:53:14;100204.19;;;0.49;80.48
59110;BME280;44895;47.438;18.978;2023-04-06T03:56:17;100209.41;;;0.62;79.65
59110;BME280;44895;47.438;18.978;2023-04-06T03:59:21;100206.03;;;0.67;80.06
59110;BME280;44895;47.438;18.978;2023-04-06T04:02:24;100200.00;;;0.72;80.16
59110;BME280;44895;47.438;18.978;2023-04-06T04:05:28;100207.75;;;0.61;79.85
59110;BME280;44895;47.438;18.978;2023-04-06T04:08:32;100204.09;;;0.56;79.43
59110;BME280;44895;47.438;18.978;2023-04-06T04:11:35;100200.41;;;0.57;81.48
59110;BME280;44895;47.438;18.978;2023-04-06T04:14:39;100200.84;;;0.72;80.26
59110;BME280;44895;47.438;18.978;2023-04-06T04:17:43;100202.81;;;0.77;79.54
59110;BME280;44895;47.438;18.978;2023-04-06T04:20:50;100203.31;;;0.37;80.63
59110;BME280;44895;47.438;18.978;2023-04-06T04:23:56;100199.59;;;0.56;81.37
59110;BME280;44895;47.438;18.978;2023-04-06T04:27:00;100206.41;;;0.71;79.77
59110;BME280;44895;47.438;18.978;2023-04-06T04:30:05;100200.53;;;0.62;79.64
59110;BME280;44895;47.438;18.978;2023-04-06T04:33:08;100196.16;;;0.68;79.43
59110;BME280;44895;47.438;18.978;2023-04-06T04:36:12;100191.84;;;0.85;78.38
59110;BME280;44895;47.438;18.978;2023-04-06T04:39:19;100191.91;;;0.78;77.93
59110;BME280;44895;47.438;18.978;2023-04-06T04:42:31;100190.47;;;0.94;77.37
59110;BME280;44895;47.438;18.978;2023-04-06T04:45:36;100184.34;;;0.75;78.63
59110;BME280;44895;47.438;18.978;2023-04-06T04:48:50;100180.88;;;0.75;79.83
59110;BME280;44895;47.438;18.978;2023-04-06T04:51:53;100176.22;;;0.82;80.19
59110;BME280;44895;47.438;18.978;2023-04-06T04:55:11;100179.88;;;0.88;78.93
59110;BME280;44895;47.438;18.978;2023-04-06T04:58:15;100175.09;;;0.90;79.79
59110;BME280;44895;47.438;18.978;2023-04-06T05:01:26;100171.69;;;1.13;78.83
59110;BME280;44895;47.438;18.978;2023-04-06T05:04:30;100179.09;;;0.99;79.69
59110;BME280;44895;47.438;18.978;2023-04-06T05:07:36;100181.00;;;1.10;79.02
59110;BME280;44895;47.438;18.978;2023-04-06T05:10:41;100183.78;;;1.16;78.37
59110;BME280;44895;47.438;18.978;2023-04-06T05:13:45;100178.06;;;1.12;77.96
59110;BME280;44895;47.438;18.978;2023-04-06T05:16:56;100179.00;;;1.18;79.60
59110;BME280;44895;47.438;18.978;2023-04-06T05:20:02;100168.72;;;1.45;78.63
59110;BME280;44895;47.438;18.978;2023-04-06T05:23:10;100168.84;;;1.62;78.33
59110;BME280;44895;47.438;18.978;2023-04-06T05:26:14;100159.06;;;1.56;77.69
59110;BME280;44895;47.438;18.978;2023-04-06T05:29:18;100158.13;;;1.62;78.78
59110;BME280;44895;47.438;18.978;2023-04-06T05:32:22;100159.41;;;1.83;77.98
59110;BME280;44895;47.438;18.978;2023-04-06T05:35:28;100150.56;;;1.94;75.44
59110;BME280;44895;47.438;18.978;2023-04-06T05:38:36;100141.56;;;2.12;74.00
59110;BME280;44895;47.438;18.978;2023-04-06T05:41:49;100143.09;;;2.08;72.98
59110;BME280;44895;47.438;18.978;2023-04-06T05:44:59;100149.09;;;2.27;73.08
59110;BME280;44895;47.438;18.978;2023-04-06T05:48:03;100140.19;;;2.80;70.47
59110;BME280;44895;47.438;18.978;2023-04-06T05:51:07;100144.16;;;2.48;70.98
59110;BME280;44895;47.438;18.978;2023-04-06T05:54:20;100144.97;;;2.49;70.24
59110;BME280;44895;47.438;18.978;2023-04-06T05:57:24;100140.84;;;2.87;70.95
59110;BME280;44895;47.438;18.978;2023-04-06T06:00:27;100138.09;;;2.82;68.59
59110;BME280;44895;47.438;18.978;2023-04-06T06:03:40;100137.97;;;3.05;68.24
59110;BME280;44895;47.438;18.978;2023-04-06T06:06:43;100127.72;;;3.19;67.49
59110;BME280;44895;47.438;18.978;2023-04-06T06:10:01;100120.22;;;3.55;65.76
59110;BME280;44895;47.438;18.978;2023-04-06T06:13:09;100119.75;;;3.58;65.88
59110;BME280;44895;47.438;18.978;2023-04-06T06:16:13;100108.00;;;3.65;65.38
59110;BME280;44895;47.438;18.978;2023-04-06T06:19:22;100105.00;;;4.00;63.78
59110;BME280;44895;47.438;18.978;2023-04-06T06:22:26;100103.63;;;3.58;62.70
59110;BME280;44895;47.438;18.978;2023-04-06T06:25:30;100110.53;;;3.94;62.45
59110;BME280;44895;47.438;18.978;2023-04-06T06:28:34;100105.38;;;4.31;62.28
59110;BME280;44895;47.438;18.978;2023-04-06T06:31:38;100095.81;;;4.68;61.43
59110;BME280;44895;47.438;18.978;2023-04-06T06:34:42;100097.94;;;4.93;60.32
59110;BME280;44895;47.438;18.978;2023-04-06T06:37:47;100095.38;;;6.58;58.45
59110;BME280;44895;47.438;18.978;2023-04-06T06:40:54;100083.03;;;7.08;53.99
59110;BME280;44895;47.438;18.978;2023-04-06T06:44:00;100072.09;;;8.91;52.74
59110;BME280;44895;47.438;18.978;2023-04-06T06:47:05;100076.09;;;9.82;49.65
59110;BME280;44895;47.438;18.978;2023-04-06T06:50:09;100069.19;;;10.95;46.54
59110;BME280;44895;47.438;18.978;2023-04-06T06:53:13;100074.66;;;10.57;45.25
59110;BME280;44895;47.438;18.978;2023-04-06T06:56:16;100074.78;;;9.79;44.36
59110;BME280;44895;47.438;18.978;2023-04-06T06:59:20;100070.34;;;10.12;45.31
59110;BME280;44895;47.438;18.978;2023-04-06T07:02:24;100068.16;;;10.34;45.79
59110;BME280;44895;47.438;18.978;2023-04-06T07:05:27;100070.47;;;10.65;43.45
59110;BME280;44895;47.438;18.978;2023-04-06T07:08:32;100070.38;;;10.89;42.45
59110;BME280;44895;47.438;18.978;2023-04-06T07:11:35;100060.72;;;11.30;42.08
59110;BME280;44895;47.438;18.978;2023-04-06T07:14:39;100058.78;;;11.91;42.33
59110;BME280;44895;47.438;18.978;2023-04-06T07:17:43;100057.78;;;11.59;40.65
59110;BME280;44895;47.438;18.978;2023-04-06T07:20:49;100060.97;;;11.61;40.64
59110;BME280;44895;47.438;18.978;2023-04-06T07:23:54;100062.25;;;11.36;40.84
59110;BME280;44895;47.438;18.978;2023-04-06T07:26:58;100062.69;;;11.57;41.19
59110;BME280;44895;47.438;18.978;2023-04-06T07:30:04;100060.22;;;12.16;40.35
59110;BME280;44895;47.438;18.978;2023-04-06T07:33:08;100057.47;;;11.14;40.41
59110;BME280;44895;47.438;18.978;2023-04-06T07:36:12;100060.50;;;11.26;40.64
59110;BME280;44895;47.438;18.978;2023-04-06T07:39:17;100053.03;;;11.51;40.10
59110;BME280;44895;47.438;18.978;2023-04-06T07:42:20;100063.16;;;10.98;40.15
59110;BME280;44895;47.438;18.978;2023-04-06T07:45:24;100056.19;;;12.00;40.09
59110;BME280;44895;47.438;18.978;2023-04-06T07:48:28;100047.72;;;12.01;39.08
59110;BME280;44895;47.438;18.978;2023-04-06T07:51:32;100050.72;;;12.14;38.67
59110;BME280;44895;47.438;18.978;2023-04-06T07:54:35;100054.31;;;12.37;37.09
59110;BME280;44895;47.438;18.978;2023-04-06T07:57:39;100052.41;;;11.54;38.59
59110;BME280;44895;47.438;18.978;2023-04-06T08:00:43;100048.88;;;10.35;39.51
59110;BME280;44895;47.438;18.978;2023-04-06T08:03:46;100054.75;;;9.99;39.70
59110;BME280;44895;47.438;18.978;2023-04-06T08:06:50;100060.59;;;9.63;40.36
59110;BME280;44895;47.438;18.978;2023-04-06T08:09:53;100058.38;;;9.41;41.74
59110;BME280;44895;47.438;18.978;2023-04-06T08:12:57;100047.78;;;9.69;41.04
59110;BME280;44895;47.438;18.978;2023-04-06T08:16:01;100054.31;;;9.38;40.76
59110;BME280;44895;47.438;18.978;2023-04-06T08:19:04;100065.91;;;9.49;41.36
59110;BME280;44895;47.438;18.978;2023-04-06T08:22:08;100059.06;;;9.27;41.33
59110;BME280;44895;47.438;18.978;2023-04-06T08:25:11;100053.78;;;9.07;41.25
59110;BME280;44895;47.438;18.978;2023-04-06T08:28:15;100052.03;;;9.51;41.65
59110;BME280;44895;47.438;18.978;2023-04-06T08:31:19;100047.78;;;9.15;41.89
59110;BME280;44895;47.438;18.978;2023-04-06T08:34:22;100046.28;;;8.98;42.41
59110;BME280;44895;47.438;18.978;2023-04-06T08:37:27;100041.31;;;9.40;42.42
59110;BME280;44895;47.438;18.978;2023-04-06T08:40:35;100045.13;;;8.75;43.40
59110;BME280;44895;47.438;18.978;2023-04-06T08:43:43;100027.22;;;9.38;41.71
59110;BME280;44895;47.438;18.978;2023-04-06T08:46:47;100034.22;;;9.15;43.25
59110;BME280;44895;47.438;18.978;2023-04-06T08:49:52;100031.75;;;8.89;43.09
59110;BME280;44895;47.438;18.978;2023-04-06T08:52:56;100027.66;;;8.92;42.25
59110;BME280;44895;47.438;18.978;2023-04-06T08:55:59;100029.25;;;9.27;42.55
59110;BME280;44895;47.438;18.978;2023-04-06T08:59:03;100023.72;;;9.62;41.88
59110;BME280;44895;47.438;18.978;2023-04-06T09:02:07;100024.22;;;10.32;41.28
59110;BME280;44895;47.438;18.978;2023-04-06T09:05:15;100018.59;;;10.47;41.41
59110;BME280;44895;47.438;18.978;2023-04-06T09:08:19;100018.56;;;10.28;40.91
59110;BME280;44895;47.438;18.978;2023-04-06T09:11:23;100007.94;;;10.51;40.89
59110;BME280;44895;47.438;18.978;2023-04-06T09:14:36;99994.06;;;11.32;40.29
59110;BME280;44895;47.438;18.978;2023-04-06T09:17:41;100001.06;;;11.05;40.46
59110;BME280;44895;47.438;18.978;2023-04-06T09:20:56;99997.41;;;10.82;41.02
59110;BME280;44895;47.438;18.978;2023-04-06T09:24:00;100000.66;;;10.27;40.52
59110;BME280;44895;47.438;18.978;2023-04-06T09:27:04;99999.06;;;9.83;41.38
59110;BME280;44895;47.438;18.978;2023-04-06T09:30:08;99991.34;;;10.33;41.36
59110;BME280;44895;47.438;18.978;2023-04-06T09:33:12;99985.91;;;10.52;40.05
59110;BME280;44895;47.438;18.978;2023-04-06T09:36:16;99986.31;;;10.46;40.96
59110;BME280;44895;47.438;18.978;2023-04-06T09:39:20;99980.78;;;10.12;39.20
59110;BME280;44895;47.438;18.978;2023-04-06T09:42:24;99983.19;;;9.52;40.29
59110;BME280;44895;47.438;18.978;2023-04-06T09:45:31;99978.44;;;9.38;39.68
59110;BME280;44895;47.438;18.978;2023-04-06T09:48:35;99971.97;;;9.58;39.77
59110;BME280;44895;47.438;18.978;2023-04-06T09:51:45;99974.22;;;9.51;39.99
59110;BME280;44895;47.438;18.978;2023-04-06T09:54:50;99980.31;;;10.05;39.99
59110;BME280;44895;47.438;18.978;2023-04-06T09:58:04;99978.28;;;9.97;39.72
59110;BME280;44895;47.438;18.978;2023-04-06T10:01:12;99972.72;;;9.64;40.78
59110;BME280;44895;47.438;18.978;2023-04-06T10:04:32;99964.78;;;10.30;39.71
59110;BME280;44895;47.438;18.978;2023-04-06T10:07:40;99964.88;;;10.25;39.28
59110;BME280;44895;47.438;18.978;2023-04-06T10:10:44;99957.84;;;10.76;39.80
59110;BME280;44895;47.438;18.978;2023-04-06T10:13:47;99952.19;;;10.72;39.86
59110;BME280;44895;47.438;18.978;2023-04-06T10:16:51;99949.91;;;10.80;39.29
59110;BME280;44895;47.438;18.978;2023-04-06T10:19:59;99952.13;;;10.91;38.65
59110;BME280;44895;47.438;18.978;2023-04-06T10:23:08;99945.94;;;11.19;38.67
59110;BME280;44895;47.438;18.978;2023-04-06T10:26:13;99936.38;;;11.07;39.07
59110;BME280;44895;47.438;18.978;2023-04-06T10:29:17;99935.25;;;10.48;39.35
59110;BME280;44895;47.438;18.978;2023-04-06T10:32:31;99933.56;;;10.66;39.11
59110;BME280;44895;47.438;18.978;2023-04-06T10:35:37;99938.09;;;10.37;38.44
59110;BME280;44895;47.438;18.978;2023-04-06T10:38:43;99921.25;;;10.87;38.79
59110;BME280;44895;47.438;18.978;2023-04-06T10:41:48;99918.88;;;11.14;37.92
59110;BME280;44895;47.438;18.978;2023-04-06T10:44:52;99929.81;;;10.95;39.27
59110;BME280;44895;47.438;18.978;2023-04-06T10:47:55;99924.47;;;10.89;38.64
59110;BME280;44895;47.438;18.978;2023-04-06T10:50:59;99916.16;;;11.28;38.65
59110;BME280;44895;47.438;18.978;2023-04-06T10:54:03;99904.13;;;10.73;38.59
59110;BME280;44895;47.438;18.978;2023-04-06T10:57:07;99915.53;;;11.03;38.99
59110;BME280;44895;47.438;18.978;2023-04-06T11:00:11;99907.88;;;11.47;39.81
59110;BME280;44895;47.438;18.978;2023-04-06T11:03:15;99904.75;;;11.39;38.00
59110;BME280;44895;47.438;18.978;2023-04-06T11:09:26;99912.88;;;10.37;38.98
59110;BME280;44895;47.438;18.978;2023-04-06T11:12:30;99909.41;;;10.97;37.96
59110;BME280;44895;47.438;18.978;2023-04-06T11:15:34;99909.19;;;11.07;38.34
59110;BME280;44895;47.438;18.978;2023-04-06T11:18:45;99898.72;;;11.01;38.96
59110;BME280;44895;47.438;18.978;2023-04-06T11:21:49;99899.63;;;11.10;38.94
59110;BME280;44895;47.438;18.978;2023-04-06T11:24:53;99896.56;;;10.70;39.85
59110;BME280;44895;47.438;18.978;2023-04-06T11:27:57;99900.50;;;10.77;39.16
59110;BME280;44895;47.438;18.978;2023-04-06T11:31:00;99893.09;;;11.11;40.26
59110;BME280;44895;47.438;18.978;2023-04-06T11:34:08;99897.41;;;11.12;38.52
59110;BME280;44895;47.438;18.978;2023-04-06T11:37:12;99885.94;;;10.87;37.67
59110;BME280;44895;47.438;18.978;2023-04-06T11:40:15;99892.56;;;10.95;37.85
59110;BME280;44895;47.438;18.978;2023-04-06T11:43:30;99890.84;;;10.85;38.80
59110;BME280;44895;47.438;18.978;2023-04-06T11:46:33;99887.16;;;11.09;36.96
59110;BME280;44895;47.438;18.978;2023-04-06T11:49:38;99894.09;;;11.29;38.04
59110;BME280;44895;47.438;18.978;2023-04-06T11:52:42;99887.66;;;11.25;38.20
59110;BME280;44895;47.438;18.978;2023-04-06T11:55:46;99886.53;;;11.26;38.32
59110;BME280;44895;47.438;18.978;2023-04-06T11:58:50;99881.50;;;10.91;37.27
59110;BME280;44895;47.438;18.978;2023-04-06T12:01:54;99877.97;;;10.77;37.39
59110;BME280;44895;47.438;18.978;2023-04-06T12:04:57;99878.56;;;10.74;37.23
59110;BME280;44895;47.438;18.978;2023-04-06T12:08:01;99873.22;;;10.83;37.92
59110;BME280;44895;47.438;18.978;2023-04-06T12:11:04;99879.97;;;10.38;38.48
59110;BME280;44895;47.438;18.978;2023-04-06T12:14:08;99888.47;;;10.51;38.66
59110;BME280;44895;47.438;18.978;2023-04-06T12:17:12;99885.34;;;10.05;39.44
59110;BME280;44895;47.438;18.978;2023-04-06T12:20:15;99882.81;;;9.95;39.79
59110;BME280;44895;47.438;18.978;2023-04-06T12:23:19;99881.56;;;10.06;38.97
59110;BME280;44895;47.438;18.978;2023-04-06T12:26:22;99877.75;;;10.07;38.81
59110;BME280;44895;47.438;18.978;2023-04-06T12:29:28;99891.16;;;9.99;38.67
59110;BME280;44895;47.438;18.978;2023-04-06T12:32:32;99883.34;;;9.78;39.17
59110;BME280;44895;47.438;18.978;2023-04-06T12:35:36;99883.03;;;9.99;38.65
59110;BME280;44895;47.438;18.978;2023-04-06T12:38:40;99886.31;;;9.76;39.23
59110;BME280;44895;47.438;18.978;2023-04-06T12:41:44;99890.56;;;9.83;40.18
59110;BME280;44895;47.438;18.978;2023-04-06T12:44:47;99883.03;;;9.79;39.58
59110;BME280;44895;47.438;18.978;2023-04-06T12:47:51;99878.91;;;10.01;39.76
59110;BME280;44895;47.438;18.978;2023-04-06T12:50:55;99883.47;;;10.06;38.99
59110;BME280;44895;47.438;18.978;2023-04-06T12:53:59;99872.44;;;10.16;39.66
59110;BME280;44895;47.438;18.978;2023-04-06T12:57:02;99870.56;;;9.98;39.57
59110;BME280;44895;47.438;18.978;2023-04-06T13:00:07;99883.75;;;10.04;39.87
59110;BME280;44895;47.438;18.978;2023-04-06T13:03:10;99881.31;;;9.45;41.25
59110;BME280;44895;47.438;18.978;2023-04-06T13:06:14;99869.81;;;9.54;40.91
59110;BME280;44895;47.438;18.978;2023-04-06T13:09:18;99875.28;;;9.73;40.79
59110;BME280;44895;47.438;18.978;2023-04-06T13:12:22;99877.28;;;9.43;40.15
59110;BME280;44895;47.438;18.978;2023-04-06T13:15:25;99874.94;;;9.36;39.54
59110;BME280;44895;47.438;18.978;2023-04-06T13:18:29;99874.25;;;9.25;40.48
59110;BME280;44895;47.438;18.978;2023-04-06T13:21:33;99879.66;;;9.25;39.25
59110;BME280;44895;47.438;18.978;2023-04-06T13:24:37;99875.31;;;9.49;39.57
59110;BME280;44895;47.438;18.978;2023-04-06T13:27:41;99872.41;;;9.64;40.06
59110;BME280;44895;47.438;18.978;2023-04-06T13:30:48;99867.03;;;9.16;40.12
59110;BME280;44895;47.438;18.978;2023-04-06T13:33:51;99866.56;;;9.33;40.67
59110;BME280;44895;47.438;18.978;2023-04-06T13:36:55;99866.72;;;9.22;41.63
59110;BME280;44895;47.438;18.978;2023-04-06T13:39:59;99864.09;;;9.12;40.61
59110;BME280;44895;47.438;18.978;2023-04-06T13:43:03;99862.38;;;8.97;40.78
59110;BME280;44895;47.438;18.978;2023-04-06T13:46:06;99864.44;;;9.05;42.47
59110;BME280;44895;47.438;18.978;2023-04-06T13:49:09;99858.16;;;9.34;41.95
59110;BME280;44895;47.438;18.978;2023-04-06T13:52:12;99854.09;;;9.12;42.55
59110;BME280;44895;47.438;18.978;2023-04-06T13:55:16;99859.84;;;9.30;42.86
59110;BME280;44895;47.438;18.978;2023-04-06T13:58:20;99846.00;;;9.51;42.70
59110;BME280;44895;47.438;18.978;2023-04-06T14:01:23;99849.00;;;9.30;42.86
59110;BME280;44895;47.438;18.978;2023-04-06T14:04:27;99858.16;;;9.34;43.17
59110;BME280;44895;47.438;18.978;2023-04-06T14:07:30;99844.53;;;9.39;43.75
59110;BME280;44895;47.438;18.978;2023-04-06T14:10:38;99845.34;;;9.16;43.34
59110;BME280;44895;47.438;18.978;2023-04-06T14:13:41;99844.53;;;8.96;43.80
59110;BME280;44895;47.438;18.978;2023-04-06T14:16:45;99844.56;;;8.91;44.24
59110;BME280;44895;47.438;18.978;2023-04-06T14:19:49;99847.84;;;9.12;43.91
59110;BME280;44895;47.438;18.978;2023-04-06T14:22:52;99846.63;;;8.75;44.05
59110;BME280;44895;47.438;18.978;2023-04-06T14:26:04;99847.28;;;8.91;43.29
59110;BME280;44895;47.438;18.978;2023-04-06T14:29:08;99843.53;;;8.87;43.53
59110;BME280;44895;47.438;18.978;2023-04-06T14:32:12;99847.47;;;8.75;44.17
59110;BME280;44895;47.438;18.978;2023-04-06T14:35:15;99852.06;;;8.75;44.20
59110;BME280;44895;47.438;18.978;2023-04-06T14:38:19;99855.47;;;8.86;44.10
59110;BME280;44895;47.438;18.978;2023-04-06T14:41:23;99862.03;;;8.79;44.98
59110;BME280;44895;47.438;18.978;2023-04-06T14:44:28;99866.91;;;8.77;44.91
59110;BME280;44895;47.438;18.978;2023-04-06T14:47:31;99864.50;;;8.76;44.99
59110;BME280;44895;47.438;18.978;2023-04-06T14:50:35;99867.19;;;8.52;46.16
59110;BME280;44895;47.438;18.978;2023-04-06T14:53:39;99868.22;;;8.56;46.73
59110;BME280;44895;47.438;18.978;2023-04-06T14:56:42;99876.75;;;8.39;47.70
59110;BME280;44895;47.438;18.978;2023-04-06T14:59:46;99881.00;;;8.50;48.63
59110;BME280;44895;47.438;18.978;2023-04-06T15:02:50;99884.91;;;8.33;48.69
59110;BME280;44895;47.438;18.978;2023-04-06T15:05:54;99878.25;;;8.55;49.04
59110;BME280;44895;47.438;18.978;2023-04-06T15:08:58;99877.22;;;8.46;49.16
59110;BME280;44895;47.438;18.978;2023-04-06T15:12:02;99891.34;;;8.38;50.10
59110;BME280;44895;47.438;18.978;2023-04-06T15:15:06;99896.09;;;8.16;52.65
59110;BME280;44895;47.438;18.978;2023-04-06T15:18:10;99897.31;;;8.35;54.12
59110;BME280;44895;47.438;18.978;2023-04-06T15:21:14;99898.81;;;8.16;55.25
59110;BME280;44895;47.438;18.978;2023-04-06T15:24:17;99884.16;;;8.23;58.82
59110;BME280;44895;47.438;18.978;2023-04-06T15:27:21;99884.53;;;8.11;58.21
59110;BME280;44895;47.438;18.978;2023-04-06T15:30:25;99882.28;;;8.18;58.63
59110;BME280;44895;47.438;18.978;2023-04-06T15:33:28;99884.06;;;8.33;58.32
59110;BME280;44895;47.438;18.978;2023-04-06T15:36:33;99883.16;;;8.13;59.40
59110;BME280;44895;47.438;18.978;2023-04-06T15:39:37;99883.19;;;8.08;58.81
59110;BME280;44895;47.438;18.978;2023-04-06T15:42:40;99877.66;;;7.84;59.57
59110;BME280;44895;47.438;18.978;2023-04-06T15:45:45;99885.00;;;7.78;60.43
59110;BME280;44895;47.438;18.978;2023-04-06T15:48:50;99885.59;;;7.65;61.21
59110;BME280;44895;47.438;18.978;2023-04-06T15:51:53;99883.72;;;7.65;63.08
59110;BME280;44895;47.438;18.978;2023-04-06T15:54:56;99887.09;;;7.92;61.21
59110;BME280;44895;47.438;18.978;2023-04-06T15:58:00;99890.16;;;7.75;63.08
59110;BME280;44895;47.438;18.978;2023-04-06T16:01:13;99895.41;;;7.56;61.80
59110;BME280;44895;47.438;18.978;2023-04-06T16:04:18;99896.53;;;7.44;63.17
59110;BME280;44895;47.438;18.978;2023-04-06T16:07:21;99900.16;;;7.79;62.17
59110;BME280;44895;47.438;18.978;2023-04-06T16:10:25;99900.34;;;7.33;62.04